Time;durP1;ratioP1;P1;durP2;ratioP2;P2;SDS_P1;SDS_P2;PMS_P1;PMS_P2;Temp;Humidity;BMP_temperature;BMP_pressure;BME280_temperature;BME280_humidity;BME280_pressure;Samples;Min_cycle;Max_cycle;Signal;HPM_P1;HPM_P2
2023/03/19 00:02:01;;;;;;;34.63;22.52;;;;;;;5.22;100.00;101210.63;5009326;28;20718;-71
2023/03/19 00:04:27;;;;;;;37.38;23.25;;;;;;;6.10;100.00;101365.53;5003627;28;20042;-70
2023/03/19 00:06:52;;;;;;;26.38;17.88;;;;;;;5.24;100.00;101204.69;5003394;28;20057;-70
2023/03/19 00:09:19;;;;;;;25.00;16.15;;;;;;;5.93;100.00;101351.91;5004436;28;20111;-68
2023/03/19 00:11:45;;;;;;;36.08;24.27;;;;;;;5.91;100.00;101348.38;4998255;28;20472;-68
2023/03/19 00:14:11;;;;;;;23.63;15.48;;;;;;;5.95;100.00;101352.91;4998689;28;20185;-68
2023/03/19 00:16:36;;;;;;;34.03;23.27;;;;;;;4.89;100.00;101186.94;4996860;28;20080;-71
2023/03/19 00:19:02;;;;;;;31.23;24.48;;;;;;;4.95;100.00;101205.34;5003251;28;20085;-68
2023/03/19 00:21:28;;;;;;;29.88;17.75;;;;;;;5.01;100.00;101219.47;5000617;28;20045;-69
2023/03/19 00:23:59;;;;;;;25.17;15.60;;;;;;;5.21;100.00;101266.09;5000653;28;20062;-68
2023/03/19 00:26:28;;;;;;;26.13;16.60;;;;;;;4.98;100.00;101219.34;5003855;28;20129;-67
2023/03/19 00:28:55;;;;;;;31.45;19.27;;;;;;;5.53;100.00;101305.41;5004952;28;20050;-67
2023/03/19 00:31:21;;;;;;;29.33;19.42;;;;;;;4.79;100.00;101196.13;5007162;28;20037;-66
2023/03/19 00:33:46;;;;;;;30.10;18.75;;;;;;;5.46;100.00;101312.09;5004340;28;20784;-69
2023/03/19 00:36:12;;;;;;;25.50;16.98;;;;;;;5.53;100.00;101315.81;5003985;28;20045;-67
2023/03/19 00:38:39;;;;;;;48.95;19.33;;;;;;;5.19;100.00;101289.47;5004235;28;20038;-68
2023/03/19 00:41:06;;;;;;;27.67;16.48;;;;;;;4.77;100.00;101206.44;5006903;28;20506;-68
2023/03/19 00:43:32;;;;;;;28.55;17.45;;;;;;;5.62;100.00;101295.28;4997351;28;20034;-68
2023/03/19 00:45:58;;;;;;;34.55;24.42;;;;;;;5.68;100.00;101270.34;5002102;28;20922;-68
2023/03/19 00:48:23;;;;;;;26.35;16.15;;;;;;;5.76;100.00;101290.53;5004487;28;20078;-68
2023/03/19 00:50:49;;;;;;;24.73;16.63;;;;;;;4.81;100.00;101160.66;5006357;28;20042;-69
2023/03/19 00:53:16;;;;;;;31.08;16.42;;;;;;;5.73;100.00;101278.31;5005368;28;20065;-69
2023/03/19 00:55:41;;;;;;;39.08;26.23;;;;;;;5.02;100.00;101171.81;5005298;28;20039;-67
2023/03/19 00:58:09;;;;;;;23.80;16.70;;;;;;;5.77;100.00;101287.13;4994012;28;20036;-69
2023/03/19 01:00:35;;;;;;;28.33;18.20;;;;;;;4.80;100.00;101136.38;5003715;28;20065;-67
2023/03/19 01:03:01;;;;;;;31.40;19.27;;;;;;;5.14;100.00;101192.16;5000721;28;20581;-69
2023/03/19 01:05:26;;;;;;;40.70;26.70;;;;;;;5.84;100.00;101289.09;5002712;28;20042;-69
2023/03/19 01:07:52;;;;;;;34.80;18.33;;;;;;;4.69;100.00;101168.91;5004882;28;20129;-69
2023/03/19 01:10:19;;;;;;;41.75;18.98;;;;;;;4.53;100.00;101149.28;5001762;28;20046;-70
2023/03/19 01:12:45;;;;;;;34.70;18.27;;;;;;;4.94;100.00;101201.88;4998519;28;20053;-69
2023/03/19 01:15:11;;;;;;;28.80;18.77;;;;;;;5.46;100.00;101270.47;5005885;28;20881;-69
2023/03/19 01:17:36;;;;;;;40.95;17.38;;;;;;;5.36;100.00;101278.75;5003731;28;20045;-68
2023/03/19 01:20:07;;;;;;;31.10;19.05;;;;;;;4.73;100.00;101136.09;5004881;28;20052;-67
2023/03/19 01:22:35;;;;;;;34.50;19.65;;;;;;;4.41;100.00;101128.03;5008331;28;20042;-67
2023/03/19 01:25:01;;;;;;;34.25;18.02;;;;;;;5.19;100.00;101263.44;4998042;28;20108;-67
2023/03/19 01:27:26;;;;;;;49.20;30.80;;;;;;;4.27;100.00;101096.38;5004734;28;20506;-68
2023/03/19 01:29:52;;;;;;;48.55;32.22;;;;;;;5.11;100.00;101257.09;5002031;28;20705;-69
2023/03/19 01:32:17;;;;;;;37.60;18.20;;;;;;;4.43;100.00;101140.25;5006718;28;20521;-68
2023/03/19 01:34:43;;;;;;;33.45;16.88;;;;;;;4.35;100.00;101125.22;5003509;28;20128;-67
2023/03/19 01:37:09;;;;;;;37.08;20.30;;;;;;;5.02;100.00;101218.63;5006828;28;20449;-68
2023/03/19 01:39:34;;;;;;;31.40;19.23;;;;;;;5.14;100.00;101236.38;5000051;28;20088;-68
2023/03/19 01:42:01;;;;;;;47.92;32.40;;;;;;;4.13;100.00;101094.97;4999824;28;20053;-67
2023/03/19 01:44:34;;;;;;;31.88;18.27;;;;;;;4.92;100.00;101237.34;4998309;28;20387;-66
2023/03/19 01:47:15;;;;;;;34.72;20.02;;;;;;;4.86;100.00;101225.00;4999138;28;20085;-69
2023/03/19 01:49:41;;;;;;;42.50;18.67;;;;;;;4.28;100.00;101111.09;5000675;28;20673;-68
2023/03/19 01:52:08;;;;;;;37.28;20.67;;;;;;;4.71;100.00;101120.47;5003834;28;20060;-68
2023/03/19 01:54:35;;;;;;;30.00;19.35;;;;;;;4.54;100.00;101091.28;5000285;28;20050;-68
2023/03/19 01:57:10;;;;;;;33.47;18.95;;;;;;;5.46;100.00;101255.72;4992944;28;20061;-71
2023/03/19 01:59:47;;;;;;;37.40;20.00;;;;;;;5.33;100.00;101226.63;4998986;28;20049;-67
2023/03/19 02:02:20;;;;;;;36.92;21.75;;;;;;;5.52;100.00;101257.63;4991614;28;20536;-68
2023/03/19 02:04:50;;;;;;;35.65;19.48;;;;;;;4.02;100.00;101007.16;4998445;28;20049;-69
2023/03/19 02:07:16;;;;;;;37.45;20.48;;;;;;;5.41;100.00;101257.28;4998731;28;20080;-70
2023/03/19 02:09:42;;;;;;;32.15;21.00;;;;;;;5.28;100.00;101245.56;5002075;28;20843;-68
2023/03/19 02:12:08;;;;;;;39.78;20.48;;;;;;;5.37;100.00;101265.81;5003176;28;20396;-69
2023/03/19 02:14:34;;;;;;;36.10;21.73;;;;;;;5.39;100.00;101240.72;5003297;28;20057;-69
2023/03/19 02:17:00;;;;;;;36.40;21.58;;;;;;;5.32;100.00;101249.16;5002879;28;20045;-69
2023/03/19 02:19:39;;;;;;;36.72;20.50;;;;;;;5.31;100.00;101247.38;4999515;28;20046;-67
2023/03/19 02:22:07;;;;;;;41.38;21.02;;;;;;;5.48;100.00;101267.06;4998780;28;20050;-69
2023/03/19 02:24:37;;;;;;;38.42;24.23;;;;;;;5.30;100.00;101240.41;5000284;28;20049;-69
2023/03/19 02:27:07;;;;;;;42.35;23.52;;;;;;;5.33;100.00;101232.69;5003768;28;20072;-68
2023/03/19 02:29:34;;;;;;;35.13;20.85;;;;;;;5.11;100.00;101238.00;5001737;28;20057;-68
2023/03/19 02:31:59;;;;;;;37.17;21.92;;;;;;;5.32;100.00;101269.09;5004850;28;20053;-67
2023/03/19 02:34:25;;;;;;;57.50;20.45;;;;;;;5.34;100.00;101270.00;4995911;28;20182;-67
2023/03/19 02:36:56;;;;;;;35.28;19.98;;;;;;;4.84;100.00;101160.75;4999457;28;20108;-67
2023/03/19 02:39:30;;;;;;;38.65;20.67;;;;;;;4.68;100.00;101140.25;5003932;28;20050;-68
2023/03/19 02:41:56;;;;;;;;;;;;;;;5.43;100.00;101260.84;4996537;28;20053;-68
2023/03/19 02:44:21;;;;;;;38.47;21.30;;;;;;;5.44;100.00;101253.91;4999935;28;19933;-68
2023/03/19 02:46:46;;;;;;;43.42;22.90;;;;;;;4.78;100.00;101125.03;5003341;28;20083;-67
2023/03/19 02:49:12;;;;;;;53.25;33.20;;;;;;;5.26;100.00;101268.03;5003272;28;20316;-67
2023/03/19 02:51:38;;;;;;;33.65;19.83;;;;;;;5.26;100.00;101260.22;5001936;28;20128;-70
2023/03/19 02:54:04;;;;;;;33.53;19.67;;;;;;;5.25;100.00;101214.22;5004949;28;20390;-69
2023/03/19 02:56:30;;;;;;;37.13;23.55;;;;;;;4.64;100.00;101129.75;5002658;28;20054;-69
2023/03/19 02:58:55;;;;;;;47.92;33.00;;;;;;;4.80;100.00;101154.59;5002805;28;20046;-69
2023/03/19 03:01:21;;;;;;;37.33;20.27;;;;;;;4.34;100.00;101093.16;5006615;28;20070;-69
2023/03/19 03:03:46;;;;;;;41.00;21.63;;;;;;;4.84;100.00;101173.75;4996827;28;23020;-68
2023/03/19 03:06:12;;;;;;;41.65;22.02;;;;;;;4.75;100.00;101098.03;5004893;28;20042;-71
2023/03/19 03:08:38;;;;;;;45.55;22.52;;;;;;;4.84;100.00;101096.63;5003574;28;20057;-66
2023/03/19 03:11:04;;;;;;;44.38;22.33;;;;;;;5.35;100.00;101188.53;5004543;28;20050;-67
2023/03/19 03:13:29;;;;;;;35.90;20.98;;;;;;;4.93;100.00;101122.09;5003949;28;20034;-67
2023/03/19 03:15:55;;;;;;;47.90;31.95;;;;;;;5.15;100.00;101151.41;5003972;28;20038;-67
2023/03/19 03:18:20;;;;;;;50.72;32.88;;;;;;;5.14;100.00;101152.25;5002625;28;20116;-69
2023/03/19 03:20:46;;;;;;;51.83;23.95;;;;;;;5.10;100.00;101138.25;5002647;28;20044;-68
2023/03/19 03:23:11;;;;;;;36.90;19.95;;;;;;;4.95;100.00;101117.81;5000422;28;20434;-67
2023/03/19 03:25:37;;;;;;;38.47;22.73;;;;;;;4.93;100.00;101126.41;5004852;28;20132;-68
2023/03/19 03:28:03;;;;;;;37.88;21.55;;;;;;;4.88;100.00;101105.44;5002178;28;20449;-68
2023/03/19 03:30:28;;;;;;;47.50;31.85;;;;;;;4.94;100.00;101118.66;4995781;28;20498;-68
2023/03/19 03:32:54;;;;;;;39.53;23.38;;;;;;;5.82;100.00;101252.56;4998582;28;20053;-67
2023/03/19 03:35:21;;;;;;;58.20;34.63;;;;;;;5.06;100.00;101105.19;5002444;28;20050;-66
2023/03/19 03:37:48;;;;;;;58.97;35.30;;;;;;;4.93;100.00;101096.06;5003590;28;20045;-68
2023/03/19 03:40:14;;;;;;;36.33;20.67;;;;;;;4.93;100.00;101129.00;5002119;28;20038;-67
2023/03/19 03:42:40;;;;;;;45.10;21.15;;;;;;;5.61;100.00;101233.66;5004464;28;20038;-66
2023/03/19 03:45:08;;;;;;;45.80;22.40;;;;;;;5.65;100.00;101240.72;4998024;28;20057;-67
2023/03/19 03:47:34;;;;;;;47.03;23.98;;;;;;;4.84;100.00;101104.44;4995277;28;20414;-67
2023/03/19 03:50:00;;;;;;;59.22;34.42;;;;;;;4.84;100.00;101107.03;4996437;28;20046;-66
2023/03/19 03:52:30;;;;;;;38.03;22.48;;;;;;;5.62;100.00;101236.31;5003566;28;20112;-66
2023/03/19 03:54:58;;;;;;;47.45;22.52;;;;;;;5.43;100.00;101229.59;5002132;28;20042;-67
2023/03/19 03:57:24;;;;;;;53.95;35.22;;;;;;;5.39;100.00;101219.03;4993743;28;20054;-66
2023/03/19 03:59:50;;;;;;;30.60;19.60;;;;;;;5.27;100.00;101206.50;5002028;28;20068;-66
2023/03/19 04:02:16;;;;;;;43.45;23.65;;;;;;;4.47;100.00;101094.47;4996132;28;20498;-67
2023/03/19 04:04:42;;;;;;;36.35;23.67;;;;;;;5.41;100.00;101233.88;4999282;28;20115;-69
2023/03/19 04:07:07;;;;;;;40.72;24.13;;;;;;;4.58;100.00;101094.84;4997944;28;20060;-68
2023/03/19 04:09:33;;;;;;;44.03;24.52;;;;;;;5.33;100.00;101248.31;4997180;28;20049;-67
2023/03/19 04:11:59;;;;;;;44.35;22.42;;;;;;;4.70;100.00;101120.41;5002348;28;20539;-69
2023/03/19 04:14:25;;;;;;;42.95;22.05;;;;;;;5.31;100.00;101228.28;4998171;28;20046;-69
2023/03/19 04:16:51;;;;;;;47.17;20.83;;;;;;;4.39;100.00;101091.59;5002912;28;20142;-69
2023/03/19 04:19:16;;;;;;;47.97;31.98;;;;;;;4.85;100.00;101178.16;5000832;28;20034;-67
2023/03/19 04:21:43;;;;;;;39.15;21.50;;;;;;;5.23;100.00;101231.50;5002100;28;20131;-67
2023/03/19 04:24:09;;;;;;;37.00;18.88;;;;;;;4.33;100.00;101096.59;4998748;28;20053;-69
2023/03/19 04:26:36;;;;;;;34.95;22.20;;;;;;;5.26;100.00;101243.72;4998052;28;20600;-67
2023/03/19 04:29:01;;;;;;;51.50;32.65;;;;;;;4.39;100.00;101112.38;4997181;28;20046;-67
2023/03/19 04:31:27;;;;;;;39.78;21.50;;;;;;;4.97;100.00;101198.50;4976662;28;20899;-67
2023/03/19 04:33:53;;;;;;;36.00;20.40;;;;;;;4.52;100.00;101118.03;5001666;28;20069;-67
2023/03/19 04:36:18;;;;;;;45.72;25.63;;;;;;;5.23;100.00;101244.50;5004772;28;20478;-67
2023/03/19 04:38:44;;;;;;;36.60;23.90;;;;;;;4.48;100.00;101130.03;5005905;28;20404;-67
2023/03/19 04:41:09;;;;;;;48.65;25.73;;;;;;;5.05;100.00;101244.72;5000199;28;20516;-67
2023/03/19 04:43:35;;;;;;;49.40;22.52;;;;;;;4.31;100.00;101113.84;5004568;28;20531;-70
2023/03/19 04:46:01;;;;;;;39.58;24.50;;;;;;;5.07;100.00;101244.81;5003935;28;20038;-67
2023/03/19 04:48:27;;;;;;;45.55;24.52;;;;;;;5.06;100.00;101223.13;5001145;28;23748;-67
2023/03/19 04:50:55;;;;;;;43.17;20.75;;;;;;;5.02;100.00;101209.94;4997095;28;20057;-69
2023/03/19 04:53:21;;;;;;;32.83;20.33;;;;;;;4.90;100.00;101184.38;5000324;28;20136;-67
2023/03/19 04:55:47;;;;;;;48.53;24.40;;;;;;;4.92;100.00;101223.47;4996622;28;20305;-67
2023/03/19 04:58:14;;;;;;;50.50;23.13;;;;;;;4.94;100.00;101213.97;4993642;28;20040;-68
2023/03/19 05:00:40;;;;;;;59.33;35.88;;;;;;;5.20;100.00;101246.13;5001550;28;20042;-68
2023/03/19 05:03:06;;;;;;;40.40;20.77;;;;;;;5.17;100.00;101226.06;4998518;28;20052;-69
2023/03/19 05:05:31;;;;;;;51.10;23.92;;;;;;;4.43;100.00;101098.69;5008257;28;20426;-68
2023/03/19 05:07:57;;;;;;;37.70;21.85;;;;;;;4.32;100.00;101080.94;5007481;28;21726;-70
2023/03/19 05:10:22;;;;;;;48.25;22.25;;;;;;;5.26;100.00;101218.59;5000113;28;20048;-68
2023/03/19 05:12:48;;;;;;;40.72;23.02;;;;;;;5.42;100.00;101248.63;5002244;28;20786;-68
2023/03/19 05:15:14;;;;;;;34.47;25.73;;;;;;;4.75;100.00;101122.34;5002225;28;20046;-68
2023/03/19 05:17:40;;;;;;;41.47;21.83;;;;;;;4.94;100.00;101156.75;5001045;28;20058;-68
2023/03/19 05:20:06;;;;;;;63.30;36.78;;;;;;;5.47;100.00;101254.88;5004476;28;20049;-68
2023/03/19 05:22:31;;;;;;;49.67;24.02;;;;;;;5.55;100.00;101254.25;4998586;28;20038;-67
2023/03/19 05:24:57;;;;;;;44.78;22.35;;;;;;;5.64;100.00;101231.13;4994918;28;20180;-67
2023/03/19 05:27:22;;;;;;;42.58;25.63;;;;;;;5.76;100.00;101231.56;4999828;28;20053;-68
2023/03/19 05:29:48;;;;;;;39.45;22.17;;;;;;;5.40;100.00;101168.75;5002925;28;20497;-67
2023/03/19 05:32:14;;;;;;;40.13;25.27;;;;;;;5.07;100.00;101143.34;5005872;28;20069;-69
2023/03/19 05:34:40;;;;;;;50.83;26.00;;;;;;;5.28;100.00;101185.72;4993998;28;20103;-71
2023/03/19 05:37:06;;;;;;;59.30;36.83;;;;;;;5.96;100.00;101247.84;4989189;28;20058;-72
2023/03/19 05:39:31;;;;;;;49.97;25.90;;;;;;;5.26;100.00;101137.06;5000312;28;20050;-69
2023/03/19 05:41:57;;;;;;;44.78;25.95;;;;;;;6.01;100.00;101227.16;4999019;28;20672;-70
2023/03/19 05:44:22;;;;;;;38.20;25.42;;;;;;;5.50;100.00;101136.97;4992128;28;20091;-72
2023/03/19 05:46:47;;;;;;;59.38;24.85;;;;;;;6.05;100.00;101271.59;4994872;28;20040;-71
2023/03/19 05:49:13;;;;;;;45.55;24.17;;;;;;;5.57;100.00;101151.97;5004800;28;20045;-69
2023/03/19 05:51:38;;;;;;;39.80;23.00;;;;;;;5.74;100.00;101162.91;5000122;28;20070;-69
2023/03/19 05:54:04;;;;;;;40.55;24.88;;;;;;;6.30;100.00;101275.00;4990762;28;20506;-69
2023/03/19 05:56:30;;;;;;;52.28;24.75;;;;;;;5.81;100.00;101153.59;5001930;28;20108;-69
2023/03/19 05:58:56;;;;;;;56.28;34.35;;;;;;;5.78;100.00;101137.84;5004066;28;20954;-69
2023/03/19 06:01:21;;;;;;;55.72;32.92;;;;;;;6.46;100.00;101238.13;5003149;28;20061;-69
2023/03/19 06:03:47;;;;;;;38.67;20.92;;;;;;;6.27;100.00;101178.44;5004593;28;20128;-68
2023/03/19 06:06:13;;;;;;;40.80;24.33;;;;;;;6.50;100.00;101193.03;4997983;28;20057;-70
2023/03/19 06:08:38;;;;;;;57.47;34.28;;;;;;;6.60;100.00;101188.97;4998049;28;20105;-69
2023/03/19 06:11:04;;;;;;;54.67;34.28;;;;;;;6.55;100.00;101170.63;5002597;28;20369;-70
2023/03/19 06:13:30;;;;;;;63.47;35.25;;;;;;;6.92;100.00;101207.25;5007281;28;20041;-68
2023/03/19 06:15:55;;;;;;;55.00;33.80;;;;;;;7.58;100.00;101323.91;5001828;28;20046;-70
2023/03/19 06:18:21;;;;;;;69.60;38.92;;;;;;;7.87;100.00;101350.81;5001465;28;20061;-70
2023/03/19 06:20:47;;;;;;;58.38;36.33;;;;;;;6.78;100.00;101222.53;5009457;28;20043;-70
2023/03/19 06:23:13;;;;;;;53.90;34.33;;;;;;;6.69;100.00;101217.91;4998109;28;20149;-70
2023/03/19 06:25:39;;;;;;;62.28;37.67;;;;;;;7.63;100.00;101327.53;5002469;28;20038;-72
2023/03/19 06:28:05;;;;;;;55.10;33.70;;;;;;;7.92;100.00;101330.03;5000782;28;20717;-68
2023/03/19 06:30:31;;;;;;;58.75;35.08;;;;;;;7.63;100.00;101369.31;5008873;28;20058;-70
2023/03/19 06:32:57;;;;;;;64.25;36.97;;;;;;;6.61;100.00;101208.13;5003530;28;20441;-70
2023/03/19 06:35:23;;;;;;;50.45;31.50;;;;;;;6.83;100.00;101273.09;5001530;28;20049;-69
2023/03/19 06:37:48;;;;;;;43.30;28.60;;;;;;;7.14;100.00;101357.47;5000394;28;20037;-71
2023/03/19 06:40:14;;;;;;;46.45;26.95;;;;;;;7.19;100.00;101358.53;4994756;28;20038;-71
2023/03/19 06:42:44;;;;;;;36.58;24.65;;;;;;;7.36;100.00;101332.88;4996123;28;20041;-70
2023/03/19 06:45:10;;;;;;;51.10;29.85;;;;;;;7.81;100.00;101375.03;4996573;28;20891;-68
2023/03/19 06:47:35;;;;;;;52.78;30.52;;;;;;;7.08;100.00;101248.59;4999894;28;20053;-69
2023/03/19 06:50:02;;;;;;;46.47;32.78;;;;;;;6.82;100.00;101134.81;4998406;28;20057;-71
2023/03/19 06:52:27;;;;;;;51.40;30.40;;;;;;;7.61;100.00;101270.03;4997416;28;20088;-69
2023/03/19 06:54:53;;;;;;;52.42;32.97;;;;;;;8.10;100.00;101377.56;5004066;28;20474;-70
2023/03/19 06:57:18;;;;;;;52.30;32.40;;;;;;;7.64;100.00;101252.69;4993817;28;20084;-69
2023/03/19 06:59:44;;;;;;;65.28;38.05;;;;;;;7.48;100.00;101196.56;5001515;28;20524;-69
2023/03/19 07:02:11;;;;;;;58.72;34.53;;;;;;;7.93;100.00;101330.06;5003027;28;20482;-69
2023/03/19 07:04:36;;;;;;;58.03;34.08;;;;;;;8.64;100.00;101386.75;4994494;28;20026;-69
2023/03/19 07:07:04;;;;;;;59.47;38.55;;;;;;;8.17;100.00;101295.81;5004368;28;20761;-70
2023/03/19 07:09:30;;;;;;;58.97;37.45;;;;;;;8.59;100.00;101394.50;5002732;28;20468;-75
2023/03/19 07:11:56;;;;;;;54.78;37.63;;;;;;;8.08;100.00;101333.88;4998368;28;20498;-68
2023/03/19 07:14:22;;;;;;;66.25;37.92;;;;;;;8.51;100.00;101385.56;5000041;28;20113;-69
2023/03/19 07:16:48;;;;;;;67.93;38.50;;;;;;;7.89;100.00;101306.41;4992047;28;20034;-70
2023/03/19 07:19:13;;;;;;;60.67;38.88;;;;;;;7.78;100.00;101277.41;5002118;28;20434;-70
2023/03/19 07:21:39;;;;;;;64.28;38.75;;;;;;;7.74;100.00;101259.91;5009494;28;20053;-69
2023/03/19 07:24:05;;;;;;;64.97;38.45;;;;;;;7.90;100.00;101274.22;4999214;28;20117;-70
2023/03/19 07:26:30;;;;;;;61.28;38.78;;;;;;;8.00;100.00;101290.16;5005015;28;20053;-70
2023/03/19 07:28:55;;;;;;;61.97;38.53;;;;;;;8.47;100.00;101375.84;4997455;28;20053;-70
2023/03/19 07:31:21;;;;;;;58.45;35.78;;;;;;;8.63;100.00;101400.66;5000158;28;20034;-70
2023/03/19 07:33:46;;;;;;;49.90;32.55;;;;;;;7.25;100.00;101280.38;5006166;28;20054;-71
2023/03/19 07:36:12;;;;;;;49.65;34.33;;;;;;;6.93;100.00;101262.09;5005542;28;20302;-70
2023/03/19 07:38:37;;;;;;;68.50;34.60;;;;;;;7.72;100.00;101346.06;5004926;28;20045;-69
2023/03/19 07:41:03;;;;;;;51.45;33.78;;;;;;;7.93;100.00;101366.63;5007885;28;20046;-70
2023/03/19 07:43:30;;;;;;;54.97;35.70;;;;;;;7.72;100.00;101381.75;5000206;28;20033;-71
2023/03/19 07:45:56;;;;;;;55.00;37.10;;;;;;;7.24;100.00;101262.94;4995761;28;20184;-69
2023/03/19 07:48:21;;;;;;;51.92;33.53;;;;;;;8.14;100.00;101375.88;5005721;28;20042;-71
2023/03/19 07:50:49;;;;;;;49.45;33.40;;;;;;;7.60;100.00;101231.69;5001746;28;20070;-74
2023/03/19 07:53:15;;;;;;;48.38;34.05;;;;;;;8.61;100.00;101389.28;4992278;28;20045;-74
2023/03/19 07:55:40;;;;;;;50.75;32.88;;;;;;;8.70;100.00;101389.50;5007285;28;20505;-72
2023/03/19 07:58:06;;;;;;;68.38;33.58;;;;;;;8.32;100.00;101276.09;4996697;28;20033;-72
2023/03/19 08:00:32;;;;;;;43.78;30.77;;;;;;;8.58;100.00;101313.34;5011019;28;20425;-73
2023/03/19 08:02:58;;;;;;;39.42;28.88;;;;;;;9.10;100.00;101398.25;5005842;28;20134;-73
2023/03/19 08:05:24;;;;;;;45.63;29.33;;;;;;;9.03;100.00;101370.16;4996619;28;20089;-74
2023/03/19 08:07:50;;;;;;;36.70;27.05;;;;;;;8.67;100.00;101300.47;5032128;28;20061;-74
2023/03/19 08:10:16;;;;;;;50.65;29.10;;;;;;;8.34;100.00;101269.19;5002560;28;20037;-74
2023/03/19 08:12:42;;;;;;;51.63;31.88;;;;;;;8.75;100.00;101371.28;5000945;28;20050;-73
2023/03/19 08:15:09;;;;;;;54.00;32.38;;;;;;;8.86;100.00;101372.41;5004708;28;20052;-73
2023/03/19 08:17:37;;;;;;;46.35;30.20;;;;;;;8.41;100.00;101276.34;5000546;28;20053;-74
2023/03/19 08:20:12;;;;;;;40.17;28.00;;;;;;;8.31;100.00;101262.16;5004023;28;20116;-72
2023/03/19 08:22:39;;;;;;;43.25;31.38;;;;;;;8.97;100.00;101308.09;5008471;28;20042;-70
2023/03/19 08:25:06;;;;;;;46.40;28.65;;;;;;;9.24;100.00;101388.06;5006337;28;20025;-70
2023/03/19 08:27:34;;;;;;;39.90;30.17;;;;;;;9.20;100.00;101367.91;4999096;28;20077;-71
2023/03/19 08:30:02;;;;;;;42.47;28.83;;;;;;;9.66;100.00;101382.81;5000241;28;20081;-72
2023/03/19 08:32:28;;;;;;;37.95;28.90;;;;;;;8.76;100.00;101235.25;5000273;28;20056;-71
2023/03/19 08:34:54;;;;;;;39.67;27.83;;;;;;;9.24;100.00;101285.94;5004878;28;20122;-71
2023/03/19 08:37:20;;;;;;;46.97;30.92;;;;;;;9.65;100.00;101367.06;5002097;28;20034;-72
2023/03/19 08:39:45;;;;;;;44.97;28.65;;;;;;;9.27;100.00;101275.50;5000525;28;20083;-70
2023/03/19 08:42:11;;;;;;;37.40;28.13;;;;;;;9.67;100.00;101344.41;4994468;28;20057;-71
2023/03/19 08:44:37;;;;;;;37.38;26.00;;;;;;;9.25;100.00;101262.41;5003147;28;20057;-71
2023/03/19 08:47:02;;;;;;;35.63;26.17;;;;;;;8.93;100.00;101243.44;5005787;28;20038;-71
2023/03/19 08:49:28;;;;;;;35.53;25.35;;;;;;;8.88;100.00;101234.63;5005454;28;20036;-71
2023/03/19 08:51:53;;;;;;;39.25;25.92;;;;;;;9.44;100.00;101339.59;5005029;28;20177;-71
2023/03/19 08:54:19;;;;;;;36.08;25.10;;;;;;;9.06;100.00;101234.09;4998478;28;20038;-71
2023/03/19 08:56:44;;;;;;;34.45;26.15;;;;;;;9.97;100.00;101340.56;4994438;28;20063;-70
2023/03/19 08:59:10;;;;;;;35.65;24.27;;;;;;;9.57;100.00;101321.50;5001415;28;20065;-71
2023/03/19 09:01:36;;;;;;;39.30;26.42;;;;;;;9.46;100.00;101246.22;4998940;28;20034;-71
2023/03/19 09:04:01;;;;;;;44.67;27.25;;;;;;;10.23;100.00;101344.53;5003480;28;20423;-70
2023/03/19 09:06:27;;;;;;;41.40;28.67;;;;;;;9.19;100.00;101215.16;5004960;28;20042;-70
2023/03/19 09:08:52;;;;;;;41.75;29.20;;;;;;;8.95;100.00;101201.59;5001161;28;20054;-73
2023/03/19 09:11:17;;;;;;;37.35;26.35;;;;;;;9.93;100.00;101332.66;4997165;28;20042;-70
2023/03/19 09:13:43;;;;;;;39.15;26.00;;;;;;;9.52;100.00;101227.09;5000561;28;20061;-71
2023/03/19 09:16:08;;;;;;;48.33;25.77;;;;;;;10.37;100.00;101344.75;5002058;28;20042;-71
2023/03/19 09:18:34;;;;;;;34.38;23.80;;;;;;;9.70;100.00;101218.66;4997231;28;20463;-70
2023/03/19 09:21:00;;;;;;;32.22;21.67;;;;;;;10.18;100.00;101274.47;5000145;28;20399;-70
2023/03/19 09:23:26;;;;;;;36.03;23.63;;;;;;;9.69;100.00;101196.81;4999084;28;20211;-72
2023/03/19 09:25:52;;;;;;;38.00;23.52;;;;;;;10.54;100.00;101331.91;5002573;28;20042;-72
2023/03/19 09:28:18;;;;;;;32.38;20.73;;;;;;;10.68;100.00;101305.88;5001855;28;20033;-69
2023/03/19 09:30:48;;;;;;;35.28;24.30;;;;;;;10.81;100.00;101325.28;5000326;28;20074;-69
2023/03/19 09:33:14;;;;;;;35.70;21.95;;;;;;;10.19;100.00;101231.66;4995415;28;20355;-71
2023/03/19 09:35:40;;;;;;;36.72;23.50;;;;;;;10.67;100.00;101310.22;5001683;28;20050;-71
2023/03/19 09:38:07;;;;;;;38.38;25.25;;;;;;;10.21;100.00;101209.84;5005441;28;20042;-71
2023/03/19 09:40:43;;;;;;;34.00;23.83;;;;;;;10.82;100.00;101287.69;5005876;28;20116;-72
2023/03/19 09:43:48;;;;;;;32.85;23.92;;;;;;;11.15;100.00;101314.34;4999326;28;20057;-71
2023/03/19 09:46:19;;;;;;;38.03;24.80;;;;;;;10.93;100.00;101273.84;4988677;28;20054;-70
2023/03/19 09:48:47;;;;;;;34.47;23.88;;;;;;;10.93;100.00;101312.31;5004332;28;20054;-70
2023/03/19 09:51:20;;;;;;;43.03;25.00;;;;;;;10.95;100.00;101293.09;4998903;28;20057;-71
2023/03/19 09:53:57;;;;;;;37.72;23.40;;;;;;;11.34;100.00;101309.31;4998263;28;20167;-70
2023/03/19 09:56:24;;;;;;;41.00;26.02;;;;;;;10.81;100.00;101318.28;4999884;28;20652;-72
2023/03/19 09:58:51;;;;;;;38.88;23.60;;;;;;;10.96;100.00;101310.63;4992641;28;20112;-72
2023/03/19 10:01:26;;;;;;;37.58;24.60;;;;;;;10.77;100.00;101203.63;5000681;28;20038;-70
2023/03/19 10:04:13;;;;;;;39.35;27.23;;;;;;;11.42;100.00;101299.75;5006867;28;20522;-71
2023/03/19 10:06:39;;;;;;;33.45;24.10;;;;;;;11.03;100.00;101176.75;4997552;28;20682;-70
2023/03/19 10:09:45;;;;;;;35.60;24.15;;;;;;;11.32;100.00;101269.00;4994817;28;20046;-70
2023/03/19 10:12:40;;;;;;;35.83;25.75;;;;;;;11.04;100.00;101280.94;4984501;28;20519;-72
2023/03/19 10:15:20;;;;;;;36.20;23.63;;;;;;;10.70;100.00;101179.03;5002220;28;20140;-70
2023/03/19 10:17:56;;;;;;;40.35;25.85;;;;;;;11.37;100.00;101277.81;5000384;28;20100;-72
2023/03/19 10:20:44;;;;;;;34.75;24.92;;;;;;;11.51;100.00;101270.06;5000382;28;20077;-74
2023/03/19 10:23:24;;;;;;;33.63;26.13;;;;;;;11.77;100.00;101263.31;4996215;28;20065;-70
2023/03/19 10:25:54;;;;;;;39.17;25.48;;;;;;;11.51;100.00;101236.78;5006478;28;20037;-71
2023/03/19 10:28:21;;;;;;;35.03;24.23;;;;;;;11.82;100.00;101218.63;5010544;28;20124;-71
2023/03/19 10:31:27;;;;;;;32.83;23.23;;;;;;;12.11;100.00;101255.72;5003872;28;20053;-71
2023/03/19 10:34:15;;;;;;;37.80;23.98;;;;;;;11.46;96.86;101128.13;5005434;28;20164;-73
2023/03/19 10:36:41;;;;;;;34.60;23.92;;;;;;;12.08;97.15;101244.28;5002553;28;20045;-71
2023/03/19 10:39:06;;;;;;;33.17;24.92;;;;;;;12.81;96.03;101250.00;5000720;28;20104;-72
2023/03/19 10:41:48;;;;;;;38.90;27.55;;;;;;;12.48;93.06;101149.78;5001856;28;20128;-70
2023/03/19 10:44:36;;;;;;;31.33;21.70;;;;;;;12.86;89.26;101231.56;5003856;28;20054;-71
2023/03/19 10:47:13;;;;;;;33.90;23.55;;;;;;;12.26;89.57;101104.97;5004456;28;20060;-71
2023/03/19 10:49:39;;;;;;;33.83;22.75;;;;;;;13.27;81.79;101167.53;4999824;28;20461;-70
2023/03/19 10:52:15;;;;;;;33.05;22.08;;;;;;;13.64;74.64;101196.59;4998081;28;20029;-71
2023/03/19 10:54:43;;;;;;;35.47;23.55;;;;;;;13.60;76.30;101123.66;5006315;28;20092;-73
2023/03/19 10:57:24;;;;;;;36.42;21.40;;;;;;;14.80;72.43;101195.50;5014249;28;20397;-72
2023/03/19 10:59:50;;;;;;;35.85;21.58;;;;;;;14.97;66.38;101193.63;4997805;28;20146;-73
2023/03/19 11:02:26;;;;;;;28.00;19.63;;;;;;;14.58;64.03;101194.69;4998874;28;20137;-73
2023/03/19 11:05:21;;;;;;;24.38;18.65;;;;;;;15.28;63.14;101147.63;5003152;28;20041;-76
2023/03/19 11:07:54;;;;;;;25.65;18.80;;;;;;;15.14;60.37;101089.56;4996420;28;20034;-74
2023/03/19 11:10:21;;;;;;;35.45;20.67;;;;;;;15.42;60.34;101166.91;5004570;28;20549;-74
2023/03/19 11:12:59;;;;;;;27.98;17.15;;;;;;;15.43;58.15;101086.69;5001043;28;20531;-72